createdAt,value
2023-05-31T00:01:15.886Z,96.37
2023-05-31T00:03:44.243Z,92.95
2023-05-31T00:06:11.727Z,92.50
2023-05-31T00:08:39.974Z,89.97
2023-05-31T00:11:08.200Z,92.17
2023-05-31T00:13:34.903Z,92.27
2023-05-31T00:16:01.605Z,98.13
2023-05-31T00:18:28.347Z,100.13
2023-05-31T00:20:55.201Z,91.80
2023-05-31T00:23:21.869Z,91.67
2023-05-31T00:25:48.670Z,93.05
2023-05-31T00:28:15.674Z,99.80
2023-05-31T00:30:42.440Z,91.77
2023-05-31T00:33:09.427Z,91.38
2023-05-31T00:35:36.159Z,90.33
2023-05-31T00:38:07.039Z,90.33
2023-05-31T00:40:34.566Z,92.17
2023-05-31T00:43:01.955Z,98.60
2023-05-31T00:45:29.808Z,94.50
2023-05-31T00:47:57.807Z,94.60
2023-05-31T00:50:24.989Z,97.87
2023-05-31T00:52:54.108Z,98.27
2023-05-31T00:55:21.470Z,99.13
2023-05-31T00:57:48.499Z,93.03
2023-05-31T01:00:16.667Z,95.70
2023-05-31T01:02:44.364Z,98.07
2023-05-31T01:05:11.478Z,91.87
2023-05-31T01:07:38.522Z,92.93
2023-05-31T01:10:07.540Z,94.60
2023-05-31T01:12:43.193Z,95.27
2023-05-31T01:15:20.677Z,93.97
2023-05-31T01:18:10.289Z,91.83
2023-05-31T01:20:39.574Z,92.57
2023-05-31T01:23:17.218Z,94.30
2023-05-31T01:25:59.688Z,93.88
2023-05-31T01:28:34.479Z,98.80
2023-05-31T01:31:05.462Z,105.90
2023-05-31T01:33:32.749Z,92.00
2023-05-31T01:35:59.418Z,93.17
2023-05-31T01:38:26.147Z,94.10
2023-05-31T01:40:55.802Z,96.30
2023-05-31T01:43:23.347Z,100.70
2023-05-31T01:45:50.824Z,96.13
2023-05-31T01:48:18.116Z,94.50
2023-05-31T01:50:46.081Z,96.47
2023-05-31T01:53:13.353Z,91.33
2023-05-31T01:55:40.437Z,94.63
2023-05-31T01:58:08.523Z,93.95
2023-05-31T02:00:36.500Z,94.72
2023-05-31T02:03:04.569Z,91.90
2023-05-31T02:05:31.617Z,101.13
2023-05-31T02:07:58.308Z,97.55
2023-05-31T02:10:25.277Z,96.40
2023-05-31T02:12:54.344Z,97.82
2023-05-31T02:15:21.959Z,93.75
2023-05-31T02:17:52.149Z,95.63
2023-05-31T02:20:19.244Z,93.03
2023-05-31T02:22:46.758Z,95.10
2023-05-31T02:25:14.576Z,94.05
2023-05-31T02:27:42.690Z,95.88
2023-05-31T02:30:10.540Z,91.55
2023-05-31T02:32:38.485Z,95.32
2023-05-31T02:35:14.286Z,97.03
2023-05-31T02:37:41.313Z,99.80
2023-05-31T02:40:11.385Z,93.60
2023-05-31T02:42:41.815Z,91.40
2023-05-31T02:45:10.259Z,92.80
2023-05-31T02:47:39.267Z,95.30
2023-05-31T02:50:10.530Z,93.90
2023-05-31T02:52:38.323Z,93.13
2023-05-31T02:55:06.137Z,92.97
2023-05-31T02:57:32.937Z,91.95
2023-05-31T03:00:14.106Z,96.80
2023-05-31T03:02:41.851Z,99.63
2023-05-31T03:05:10.193Z,93.18
2023-05-31T03:07:37.434Z,100.07
2023-05-31T03:10:07.928Z,95.03
2023-05-31T03:12:35.159Z,97.60
2023-05-31T03:15:01.944Z,97.30
2023-05-31T03:17:28.655Z,96.55
2023-05-31T03:19:55.423Z,92.57
2023-05-31T03:22:24.124Z,91.53
2023-05-31T03:24:51.113Z,91.87
2023-05-31T03:27:17.820Z,95.78
2023-05-31T03:29:44.558Z,101.93
2023-05-31T03:32:11.342Z,95.72
2023-05-31T03:34:38.369Z,102.20
2023-05-31T03:37:05.379Z,91.28
2023-05-31T03:39:32.746Z,93.22
2023-05-31T03:42:01.611Z,93.10
2023-05-31T03:44:28.332Z,92.63
2023-05-31T03:46:55.037Z,91.18
2023-05-31T03:49:21.721Z,93.27
2023-05-31T03:51:48.471Z,92.00
2023-05-31T03:54:15.536Z,93.67
2023-05-31T03:56:42.281Z,96.15
2023-05-31T03:59:09.914Z,95.63
2023-05-31T04:01:36.777Z,95.13
2023-05-31T04:04:03.696Z,93.63
2023-05-31T04:06:30.613Z,98.83
2023-05-31T04:08:57.281Z,97.60
2023-05-31T04:11:24.484Z,105.35
2023-05-31T04:13:51.343Z,93.40
2023-05-31T04:16:18.136Z,98.70
2023-05-31T04:18:44.901Z,93.63
2023-05-31T04:21:11.592Z,95.25
2023-05-31T04:23:38.293Z,92.40
2023-05-31T04:26:05.751Z,97.20
2023-05-31T04:28:32.748Z,100.03
2023-05-31T04:30:59.983Z,103.15
2023-05-31T04:33:30.448Z,95.57
2023-05-31T04:35:58.711Z,96.60
2023-05-31T04:38:28.440Z,91.37
2023-05-31T04:40:56.659Z,92.80
2023-05-31T04:43:23.582Z,97.45
2023-05-31T04:45:50.517Z,94.38
2023-05-31T04:48:17.608Z,94.27
2023-05-31T04:50:44.908Z,92.03
2023-05-31T04:53:12.233Z,96.37
2023-05-31T04:55:39.195Z,100.30
2023-05-31T04:58:05.958Z,95.47
2023-05-31T05:00:33.225Z,98.40
2023-05-31T05:03:00.261Z,93.38
2023-05-31T05:05:27.318Z,95.68
2023-05-31T05:07:54.224Z,91.37
2023-05-31T05:10:20.916Z,93.40
2023-05-31T05:12:47.628Z,93.37
2023-05-31T05:15:14.392Z,95.80
2023-05-31T05:17:42.187Z,103.50
2023-05-31T05:20:11.300Z,91.47
2023-05-31T05:22:38.077Z,93.77
2023-05-31T05:25:05.480Z,98.40
2023-05-31T05:27:32.203Z,93.22
2023-05-31T05:29:58.844Z,92.30
2023-05-31T05:32:25.622Z,92.30
2023-05-31T05:34:52.299Z,94.53
2023-05-31T05:37:18.954Z,96.10
2023-05-31T05:39:45.615Z,95.40
2023-05-31T05:42:13.126Z,100.77
2023-05-31T05:44:39.815Z,91.22
2023-05-31T05:47:06.773Z,94.30
2023-05-31T05:49:34.850Z,92.67
2023-05-31T05:52:01.559Z,94.53
2023-05-31T05:54:28.269Z,91.95
2023-05-31T05:56:55.126Z,91.78
2023-05-31T05:59:22.383Z,90.93
2023-05-31T06:01:49.070Z,92.00
2023-05-31T06:04:15.923Z,94.53
2023-05-31T06:06:43.935Z,94.78
2023-05-31T06:09:11.537Z,94.68
2023-05-31T06:11:38.197Z,94.00
2023-05-31T06:14:05.113Z,89.30
2023-05-31T06:16:32.877Z,94.10
2023-05-31T06:18:59.589Z,91.70
2023-05-31T06:21:26.324Z,90.07
2023-05-31T06:23:52.983Z,90.37
2023-05-31T06:26:19.630Z,91.10
2023-05-31T06:28:46.508Z,92.90
2023-05-31T06:31:13.200Z,88.03
2023-05-31T06:33:39.847Z,87.53
2023-05-31T06:36:06.711Z,84.83
2023-05-31T06:38:34.806Z,87.77
2023-05-31T06:41:01.701Z,96.23
2023-05-31T06:43:28.547Z,86.17
2023-05-31T06:45:55.377Z,83.03
2023-05-31T06:48:22.308Z,88.23
2023-05-31T06:50:49.067Z,86.57
2023-05-31T06:53:15.757Z,81.97
2023-05-31T06:55:42.568Z,87.20
2023-05-31T06:58:09.256Z,79.90
2023-05-31T07:00:36.041Z,83.90
2023-05-31T07:03:02.796Z,81.60
2023-05-31T07:05:31.334Z,78.50
2023-05-31T07:07:58.022Z,78.80
2023-05-31T07:10:24.773Z,80.10
2023-05-31T07:12:51.969Z,80.47
2023-05-31T07:15:18.848Z,80.00
2023-05-31T07:17:47.225Z,78.40
2023-05-31T07:20:14.379Z,84.40
2023-05-31T07:22:41.124Z,82.07
2023-05-31T07:25:08.346Z,85.80
2023-05-31T07:27:35.296Z,80.90
2023-05-31T07:30:02.011Z,92.57
2023-05-31T07:32:29.191Z,83.83
2023-05-31T07:35:03.068Z,87.83
2023-05-31T07:37:31.389Z,80.27
2023-05-31T07:39:58.383Z,85.40
2023-05-31T07:42:25.103Z,82.07
2023-05-31T07:44:51.823Z,83.07
2023-05-31T07:47:20.609Z,88.60
2023-05-31T07:49:47.463Z,82.70
2023-05-31T07:52:14.272Z,84.27
2023-05-31T07:54:41.047Z,81.70
2023-05-31T07:57:07.791Z,84.27
2023-05-31T07:59:34.509Z,89.03
2023-05-31T08:02:01.345Z,92.53
2023-05-31T08:04:28.053Z,82.13
2023-05-31T08:06:54.738Z,85.37
2023-05-31T08:09:22.007Z,84.80
2023-05-31T08:11:48.708Z,87.90
2023-05-31T08:14:15.579Z,87.93
2023-05-31T08:16:42.309Z,84.83
2023-05-31T08:19:09.073Z,85.07
2023-05-31T08:21:38.086Z,82.20
2023-05-31T08:24:07.160Z,88.17
2023-05-31T08:26:36.901Z,85.60
2023-05-31T08:29:03.957Z,82.13
2023-05-31T08:31:30.863Z,84.10
2023-05-31T08:33:59.464Z,85.47
2023-05-31T08:36:27.584Z,81.83
2023-05-31T08:38:54.402Z,85.00
2023-05-31T08:41:23.163Z,88.90
2023-05-31T08:43:50.807Z,84.90
2023-05-31T08:46:17.771Z,86.07
2023-05-31T08:48:47.618Z,85.20
2023-05-31T08:51:16.342Z,82.33
2023-05-31T08:53:44.121Z,84.60
2023-05-31T08:56:12.178Z,82.43
2023-05-31T08:58:39.992Z,85.33
2023-05-31T09:01:07.558Z,84.10
2023-05-31T09:03:34.237Z,82.63
2023-05-31T09:06:01.223Z,87.50
2023-05-31T09:08:28.162Z,83.70
2023-05-31T09:10:54.902Z,84.13
2023-05-31T09:13:21.853Z,85.13
2023-05-31T09:15:50.629Z,83.27
2023-05-31T09:18:20.497Z,82.30
2023-05-31T09:20:53.747Z,85.07
2023-05-31T09:23:20.788Z,82.67
2023-05-31T09:25:52.787Z,83.67
2023-05-31T09:28:21.843Z,83.27
2023-05-31T09:31:08.414Z,82.70
2023-05-31T09:33:43.136Z,88.60
2023-05-31T09:36:12.966Z,85.23
2023-05-31T09:38:40.590Z,82.47
2023-05-31T09:41:13.716Z,84.10
2023-05-31T09:43:50.587Z,82.63
2023-05-31T09:46:19.143Z,87.83
2023-05-31T09:48:47.196Z,81.90
2023-05-31T09:51:17.357Z,82.30
2023-05-31T09:53:47.038Z,86.40
2023-05-31T09:56:24.168Z,83.20
2023-05-31T09:58:52.388Z,82.43
2023-05-31T10:01:20.671Z,82.40
2023-05-31T10:03:50.003Z,82.97
2023-05-31T10:06:20.646Z,85.17
2023-05-31T10:08:47.673Z,83.43
2023-05-31T10:11:18.307Z,81.40
2023-05-31T10:13:48.088Z,82.13
2023-05-31T10:16:16.604Z,80.07
2023-05-31T10:18:46.695Z,81.97
2023-05-31T10:21:34.221Z,81.13
2023-05-31T10:24:05.706Z,82.10
2023-05-31T10:26:52.552Z,81.77
2023-05-31T10:29:24.665Z,82.97
2023-05-31T10:31:52.763Z,81.07
2023-05-31T10:34:24.354Z,81.47
2023-05-31T10:36:52.842Z,88.50
2023-05-31T10:39:37.345Z,80.63
2023-05-31T10:42:30.116Z,82.27
2023-05-31T10:45:25.461Z,83.80
2023-05-31T10:47:58.072Z,85.67
2023-05-31T10:50:24.968Z,84.37
2023-05-31T10:53:11.926Z,84.47
2023-05-31T10:55:43.821Z,80.87
2023-05-31T10:58:32.019Z,84.17
2023-05-31T11:01:06.331Z,81.50
2023-05-31T11:03:38.919Z,79.77
2023-05-31T11:06:10.222Z,82.77
2023-05-31T11:08:37.333Z,81.90
2023-05-31T11:11:42.303Z,80.47
2023-05-31T11:14:30.404Z,80.50
2023-05-31T11:17:17.717Z,83.70
2023-05-31T11:19:51.732Z,83.40
2023-05-31T11:22:23.535Z,87.73
2023-05-31T11:24:59.208Z,80.90
2023-05-31T11:27:40.031Z,82.57
2023-05-31T11:30:19.160Z,81.97
2023-05-31T11:32:56.018Z,86.47
2023-05-31T11:35:23.986Z,87.87
2023-05-31T11:37:52.817Z,82.10
2023-05-31T11:40:19.591Z,81.70
2023-05-31T11:42:47.544Z,80.37
2023-05-31T11:45:18.433Z,80.77
2023-05-31T11:47:45.199Z,82.77
2023-05-31T11:50:17.496Z,79.90
2023-05-31T11:52:45.031Z,84.50
2023-05-31T11:55:13.066Z,81.33
2023-05-31T11:57:45.591Z,83.87
2023-05-31T12:00:13.735Z,83.00
2023-05-31T12:02:41.720Z,81.00
2023-05-31T12:05:17.737Z,80.10
2023-05-31T12:07:46.178Z,79.30
2023-05-31T12:10:13.469Z,80.70
2023-05-31T12:12:43.360Z,79.87
2023-05-31T12:15:13.275Z,83.83
2023-05-31T12:17:41.090Z,79.13
2023-05-31T12:20:09.157Z,81.80
2023-05-31T12:22:35.857Z,79.80
2023-05-31T12:25:02.607Z,82.13
2023-05-31T12:27:44.383Z,81.37
2023-05-31T12:30:21.316Z,81.07
2023-05-31T12:32:48.225Z,82.40
2023-05-31T12:35:15.799Z,80.70
2023-05-31T12:37:43.343Z,82.20
2023-05-31T12:40:22.864Z,83.60
2023-05-31T12:42:50.706Z,81.40
2023-05-31T12:45:19.543Z,79.87
2023-05-31T12:47:56.916Z,80.50
2023-05-31T12:50:23.698Z,80.63
2023-05-31T12:52:57.769Z,82.00
2023-05-31T12:55:24.779Z,79.67
2023-05-31T12:57:52.959Z,79.90
2023-05-31T13:00:20.937Z,79.57
2023-05-31T13:02:47.847Z,80.10
2023-05-31T13:05:14.672Z,79.90
2023-05-31T13:07:41.586Z,80.27
2023-05-31T13:10:12.363Z,80.37
2023-05-31T13:12:39.757Z,79.50
2023-05-31T13:15:07.849Z,82.27
2023-05-31T13:17:34.904Z,81.30
2023-05-31T13:20:11.962Z,81.23
2023-05-31T13:22:40.311Z,81.70
2023-05-31T13:25:08.020Z,86.60
2023-05-31T13:27:34.887Z,82.70
2023-05-31T13:30:02.009Z,80.60
2023-05-31T13:32:28.948Z,80.20
2023-05-31T13:34:58.381Z,82.00
2023-05-31T13:37:27.134Z,82.27
2023-05-31T13:39:56.072Z,81.20
2023-05-31T13:42:22.784Z,80.47
2023-05-31T13:44:49.482Z,79.07
2023-05-31T13:47:16.193Z,81.00
2023-05-31T13:49:42.949Z,81.27
2023-05-31T13:52:10.946Z,81.00
2023-05-31T13:54:37.918Z,79.97
2023-05-31T13:57:04.790Z,81.10
2023-05-31T13:59:32.445Z,80.70
2023-05-31T14:01:59.524Z,81.17
2023-05-31T14:04:26.285Z,82.20
2023-05-31T14:06:53.926Z,80.37
2023-05-31T14:09:21.821Z,79.83
2023-05-31T14:11:48.610Z,82.03
2023-05-31T14:14:15.473Z,80.87
2023-05-31T14:16:42.469Z,82.57
2023-05-31T14:19:09.474Z,82.57
2023-05-31T14:21:42.532Z,82.87
2023-05-31T14:24:10.121Z,84.63
2023-05-31T14:26:36.837Z,79.93
2023-05-31T14:29:03.661Z,82.30
2023-05-31T14:31:30.375Z,82.20
2023-05-31T14:33:57.185Z,82.77
2023-05-31T14:36:24.272Z,83.07
2023-05-31T14:38:51.646Z,79.67
2023-05-31T14:41:18.804Z,79.77
2023-05-31T14:43:47.184Z,79.80
2023-05-31T14:46:14.170Z,80.40
2023-05-31T14:48:42.485Z,80.47
2023-05-31T14:51:11.333Z,79.97
2023-05-31T14:53:38.040Z,84.20
2023-05-31T14:58:34.556Z,81.13
2023-05-31T15:01:01.628Z,84.50
2023-05-31T15:03:28.522Z,81.03
2023-05-31T15:05:55.326Z,84.27
2023-05-31T15:08:22.680Z,85.47
2023-05-31T15:10:52.482Z,81.60
2023-05-31T15:13:19.244Z,84.23
2023-05-31T15:15:45.987Z,80.90
2023-05-31T15:18:14.285Z,82.33
2023-05-31T15:20:41.140Z,80.53
2023-05-31T15:23:07.914Z,80.43
2023-05-31T15:25:34.732Z,81.60
2023-05-31T15:28:01.434Z,82.63
2023-05-31T15:30:28.096Z,82.00
2023-05-31T15:32:54.764Z,88.00
2023-05-31T15:35:21.916Z,88.70
2023-05-31T15:37:48.620Z,82.00
2023-05-31T15:40:15.641Z,81.87
2023-05-31T15:42:42.288Z,82.37
2023-05-31T15:45:09.432Z,84.40
2023-05-31T15:47:36.161Z,83.87
2023-05-31T15:50:03.910Z,84.93
2023-05-31T15:52:30.891Z,91.20
2023-05-31T15:54:57.577Z,81.70
2023-05-31T15:57:24.264Z,81.47
2023-05-31T15:59:50.995Z,83.57
2023-05-31T16:02:17.701Z,83.07
2023-05-31T16:04:44.670Z,88.87
2023-05-31T16:07:11.422Z,84.60
2023-05-31T16:09:38.112Z,84.00
2023-05-31T16:12:06.894Z,82.53
2023-05-31T16:14:33.796Z,83.30
2023-05-31T16:17:01.709Z,81.80
2023-05-31T16:19:29.723Z,82.00
2023-05-31T16:21:56.426Z,81.80
2023-05-31T16:24:23.281Z,82.60
2023-05-31T16:26:51.571Z,85.27
2023-05-31T16:29:18.769Z,83.20
2023-05-31T16:31:45.526Z,90.30
2023-05-31T16:34:12.315Z,83.77
2023-05-31T16:36:39.064Z,88.83
2023-05-31T16:39:08.523Z,84.83
2023-05-31T16:41:35.892Z,81.87
2023-05-31T16:44:03.216Z,82.37
2023-05-31T16:46:30.112Z,82.30
2023-05-31T16:48:58.722Z,84.30
2023-05-31T16:51:26.195Z,86.63
2023-05-31T16:53:53.638Z,84.47
2023-05-31T16:56:20.710Z,86.97
2023-05-31T16:58:47.520Z,83.90
2023-05-31T17:01:14.168Z,82.27
2023-05-31T17:03:41.011Z,83.60
2023-05-31T17:06:07.869Z,93.67
2023-05-31T17:08:34.570Z,86.37
2023-05-31T17:11:01.293Z,83.57
2023-05-31T17:13:27.959Z,84.87
2023-05-31T17:15:54.639Z,90.40
2023-05-31T17:18:21.581Z,84.67
2023-05-31T17:20:48.274Z,87.10
2023-05-31T17:23:14.978Z,85.67
2023-05-31T17:25:43.527Z,95.23
2023-05-31T17:28:11.254Z,86.07
2023-05-31T17:30:37.937Z,84.33
2023-05-31T17:33:04.785Z,83.23
2023-05-31T17:35:31.507Z,85.43
2023-05-31T17:37:58.278Z,85.80
2023-05-31T17:40:24.940Z,87.60
2023-05-31T17:42:52.045Z,85.27
2023-05-31T17:45:18.778Z,90.37
2023-05-31T17:47:45.761Z,85.10
2023-05-31T17:50:13.016Z,92.00
2023-05-31T17:52:39.827Z,84.17
2023-05-31T17:55:07.889Z,86.03
2023-05-31T17:57:36.118Z,87.37
2023-05-31T18:00:03.525Z,84.50
2023-05-31T18:02:30.775Z,84.27
2023-05-31T18:04:57.459Z,84.70
2023-05-31T18:07:24.207Z,83.17
2023-05-31T18:09:50.889Z,84.67
2023-05-31T18:12:17.626Z,84.50
2023-05-31T18:14:44.404Z,84.93
2023-05-31T18:17:11.093Z,82.97
2023-05-31T18:19:37.929Z,84.10
2023-05-31T18:22:05.007Z,84.73
2023-05-31T18:24:31.955Z,83.07
2023-05-31T18:27:19.748Z,84.20
2023-05-31T18:29:50.468Z,84.87
2023-05-31T18:32:19.775Z,84.30
2023-05-31T18:34:46.872Z,87.90
2023-05-31T18:37:14.896Z,87.37
2023-05-31T18:39:43.654Z,85.17
2023-05-31T18:42:11.139Z,87.33
2023-05-31T18:44:37.867Z,83.23
2023-05-31T18:47:05.341Z,87.93
2023-05-31T18:49:32.248Z,85.53
2023-05-31T18:51:59.023Z,87.17
2023-05-31T18:54:25.899Z,88.20
2023-05-31T18:56:53.486Z,83.37
2023-05-31T18:59:20.251Z,85.00
2023-05-31T19:01:46.949Z,87.80
2023-05-31T19:04:13.733Z,83.87
2023-05-31T19:06:41.019Z,91.47
2023-05-31T19:09:07.833Z,87.37
2023-05-31T19:11:37.185Z,88.47
2023-05-31T19:14:04.094Z,84.70
2023-05-31T19:16:30.835Z,84.10
2023-05-31T19:18:58.444Z,85.63
2023-05-31T19:21:25.346Z,85.80
2023-05-31T19:23:52.035Z,85.20
2023-05-31T19:26:19.493Z,85.03
2023-05-31T19:28:46.191Z,85.67
2023-05-31T19:31:12.986Z,85.27
2023-05-31T19:33:40.086Z,85.50
2023-05-31T19:36:06.934Z,83.57
2023-05-31T19:38:33.634Z,89.40
2023-05-31T19:41:00.656Z,85.90
2023-05-31T19:43:27.434Z,85.10
2023-05-31T19:45:54.177Z,85.60
2023-05-31T19:48:20.916Z,84.50
2023-05-31T19:50:47.866Z,86.73
2023-05-31T19:53:14.650Z,84.93
2023-05-31T19:55:43.715Z,84.90
2023-05-31T19:58:11.167Z,89.63
2023-05-31T20:00:37.916Z,85.27
2023-05-31T20:03:05.256Z,85.60
2023-05-31T20:05:32.054Z,84.47
2023-05-31T20:07:58.749Z,86.67
2023-05-31T20:10:25.390Z,85.67
2023-05-31T20:12:52.768Z,85.80
2023-05-31T20:15:19.773Z,86.77
2023-05-31T20:17:46.481Z,87.70
2023-05-31T20:20:14.613Z,87.70
2023-05-31T20:22:41.418Z,85.70
2023-05-31T20:25:08.497Z,85.20
2023-05-31T20:27:35.492Z,88.63
2023-05-31T20:30:02.365Z,84.10
2023-05-31T20:32:29.087Z,89.40
2023-05-31T20:34:55.904Z,85.50
2023-05-31T20:37:22.596Z,86.30
2023-05-31T20:39:49.243Z,85.57
2023-05-31T20:42:16.065Z,85.27
2023-05-31T20:44:44.485Z,87.10
2023-05-31T20:47:11.714Z,85.30
2023-05-31T20:49:38.438Z,87.33
2023-05-31T20:52:05.400Z,86.57
2023-05-31T20:54:32.530Z,85.30
2023-05-31T20:56:59.797Z,85.17
2023-05-31T20:59:26.858Z,85.10
2023-05-31T21:01:53.648Z,85.97
2023-05-31T21:04:20.958Z,86.70
2023-05-31T21:06:47.667Z,86.40
2023-05-31T21:09:14.629Z,84.80
2023-05-31T21:11:41.341Z,85.80
2023-05-31T21:14:08.036Z,90.07
2023-05-31T21:16:34.871Z,86.90
2023-05-31T21:19:01.583Z,86.90
2023-05-31T21:21:28.297Z,87.43
2023-05-31T21:23:54.981Z,88.57
2023-05-31T21:26:22.176Z,85.83
2023-05-31T21:28:48.917Z,88.20
2023-05-31T21:31:15.624Z,91.90
2023-05-31T21:33:42.396Z,87.47
2023-05-31T21:36:09.214Z,87.00
2023-05-31T21:38:35.900Z,87.43
2023-05-31T21:41:04.553Z,87.97
2023-05-31T21:43:33.289Z,88.87
2023-05-31T21:45:59.970Z,89.40
2023-05-31T21:48:26.640Z,91.43
2023-05-31T21:50:53.290Z,90.93
2023-05-31T21:53:19.975Z,86.97
2023-05-31T21:55:46.631Z,87.43
2023-05-31T21:58:13.311Z,88.57
2023-05-31T22:00:39.955Z,87.67
2023-05-31T22:03:06.719Z,90.93
2023-05-31T22:05:33.415Z,90.50
2023-05-31T22:08:00.160Z,87.30
2023-05-31T22:10:27.095Z,88.40
2023-05-31T22:12:53.777Z,91.80
2023-05-31T22:15:20.764Z,93.30
2023-05-31T22:17:50.870Z,88.40
2023-05-31T22:20:17.654Z,87.67
2023-05-31T22:22:44.335Z,88.13
2023-05-31T22:25:14.569Z,91.77
2023-05-31T22:27:41.808Z,89.33
2023-05-31T22:30:09.015Z,91.57
2023-05-31T22:32:35.779Z,88.57
2023-05-31T22:35:02.589Z,90.53
2023-05-31T22:37:29.259Z,89.60
2023-05-31T22:39:56.160Z,89.10
2023-05-31T22:42:23.087Z,94.87
2023-05-31T22:44:49.824Z,89.57
2023-05-31T22:47:16.901Z,90.40
2023-05-31T22:49:43.723Z,93.83
2023-05-31T22:52:10.543Z,91.63
2023-05-31T22:54:37.650Z,88.50
2023-05-31T22:57:04.663Z,89.70
2023-05-31T22:59:31.385Z,87.60
2023-05-31T23:01:58.113Z,89.23
2023-05-31T23:04:26.454Z,88.67
2023-05-31T23:06:54.414Z,90.50
2023-05-31T23:09:21.153Z,87.77
2023-05-31T23:11:50.189Z,87.83
2023-05-31T23:14:16.997Z,88.10
2023-05-31T23:16:45.282Z,88.57
2023-05-31T23:19:13.642Z,88.60
2023-05-31T23:21:41.036Z,89.60
2023-05-31T23:24:08.594Z,94.63
2023-05-31T23:26:35.578Z,91.90
2023-05-31T23:29:03.562Z,89.70
2023-05-31T23:31:30.352Z,89.57
2023-05-31T23:33:58.596Z,88.67
2023-05-31T23:36:25.464Z,89.30
2023-05-31T23:38:52.849Z,89.87
2023-05-31T23:41:19.838Z,87.60
2023-05-31T23:43:46.963Z,88.60
2023-05-31T23:46:13.888Z,88.60
2023-05-31T23:48:40.947Z,88.60
2023-05-31T23:51:08.430Z,88.30
2023-05-31T23:53:36.500Z,88.30
2023-05-31T23:56:03.323Z,93.90
2023-05-31T23:58:31.212Z,90.00
